sensor_id;sensor_type;location;lat;lon;timestamp;P1;durP1;ratioP1;P2;durP2;ratioP2
14740;SDS011;7462;53.530;9.414;2022-09-28T00:01:04;6.20;;;4.73;;
14740;SDS011;7462;53.530;9.414;2022-09-28T00:03:33;5.40;;;4.60;;
14740;SDS011;7462;53.530;9.414;2022-09-28T00:06:02;6.27;;;4.40;;
14740;SDS011;7462;53.530;9.414;2022-09-28T00:08:31;5.40;;;4.60;;
14740;SDS011;7462;53.530;9.414;2022-09-28T00:11:01;8.43;;;4.93;;
14740;SDS011;7462;53.530;9.414;2022-09-28T00:13:31;7.03;;;4.30;;
14740;SDS011;7462;53.530;9.414;2022-09-28T00:16:01;6.03;;;5.17;;
14740;SDS011;7462;53.530;9.414;2022-09-28T00:18:30;5.37;;;4.63;;
14740;SDS011;7462;53.530;9.414;2022-09-28T00:21:02;5.57;;;5.07;;
14740;SDS011;7462;53.530;9.414;2022-09-28T00:23:33;5.90;;;4.87;;
14740;SDS011;7462;53.530;9.414;2022-09-28T00:26:24;5.93;;;5.13;;
14740;SDS011;7462;53.530;9.414;2022-09-28T00:28:52;6.17;;;4.83;;
14740;SDS011;7462;53.530;9.414;2022-09-28T00:31:21;5.50;;;4.97;;
14740;SDS011;7462;53.530;9.414;2022-09-28T00:33:50;6.10;;;4.73;;
14740;SDS011;7462;53.530;9.414;2022-09-28T00:36:20;5.87;;;5.27;;
14740;SDS011;7462;53.530;9.414;2022-09-28T00:38:48;6.43;;;5.13;;
14740;SDS011;7462;53.530;9.414;2022-09-28T00:41:17;5.97;;;5.27;;
14740;SDS011;7462;53.530;9.414;2022-09-28T00:43:46;6.20;;;5.33;;
14740;SDS011;7462;53.530;9.414;2022-09-28T00:46:15;6.20;;;5.60;;
14740;SDS011;7462;53.530;9.414;2022-09-28T00:48:49;8.53;;;6.07;;
14740;SDS011;7462;53.530;9.414;2022-09-28T00:51:22;7.37;;;5.43;;
14740;SDS011;7462;53.530;9.414;2022-09-28T00:53:52;5.77;;;5.20;;
14740;SDS011;7462;53.530;9.414;2022-09-28T00:56:22;7.17;;;5.63;;
14740;SDS011;7462;53.530;9.414;2022-09-28T00:58:55;6.73;;;6.07;;
14740;SDS011;7462;53.530;9.414;2022-09-28T01:01:25;6.10;;;5.50;;
14740;SDS011;7462;53.530;9.414;2022-09-28T01:03:54;7.77;;;6.20;;
14740;SDS011;7462;53.530;9.414;2022-09-28T01:06:24;8.20;;;6.23;;
14740;SDS011;7462;53.530;9.414;2022-09-28T01:08:57;5.80;;;5.17;;
14740;SDS011;7462;53.530;9.414;2022-09-28T01:11:27;6.53;;;5.50;;
14740;SDS011;7462;53.530;9.414;2022-09-28T01:13:59;6.37;;;5.83;;
14740;SDS011;7462;53.530;9.414;2022-09-28T01:16:30;7.43;;;6.00;;
14740;SDS011;7462;53.530;9.414;2022-09-28T01:19:46;7.97;;;6.10;;
14740;SDS011;7462;53.530;9.414;2022-09-28T01:25:44;6.53;;;6.00;;
14740;SDS011;7462;53.530;9.414;2022-09-28T01:28:21;8.03;;;6.37;;
14740;SDS011;7462;53.530;9.414;2022-09-28T01:30:55;7.97;;;6.37;;
14740;SDS011;7462;53.530;9.414;2022-09-28T01:33:30;7.07;;;6.30;;
14740;SDS011;7462;53.530;9.414;2022-09-28T01:36:06;7.63;;;6.13;;
14740;SDS011;7462;53.530;9.414;2022-09-28T01:38:39;7.10;;;6.40;;
14740;SDS011;7462;53.530;9.414;2022-09-28T01:41:12;8.20;;;6.47;;
14740;SDS011;7462;53.530;9.414;2022-09-28T01:43:46;7.50;;;6.80;;
14740;SDS011;7462;53.530;9.414;2022-09-28T01:46:19;6.50;;;5.70;;
14740;SDS011;7462;53.530;9.414;2022-09-28T01:48:50;8.17;;;6.73;;
14740;SDS011;7462;53.530;9.414;2022-09-28T01:51:24;7.57;;;6.43;;
14740;SDS011;7462;53.530;9.414;2022-09-28T01:53:59;6.90;;;6.30;;
14740;SDS011;7462;53.530;9.414;2022-09-28T01:56:34;7.00;;;6.33;;
14740;SDS011;7462;53.530;9.414;2022-09-28T01:59:09;7.13;;;6.43;;
14740;SDS011;7462;53.530;9.414;2022-09-28T02:01:42;6.50;;;5.90;;
14740;SDS011;7462;53.530;9.414;2022-09-28T02:04:15;6.93;;;6.03;;
14740;SDS011;7462;53.530;9.414;2022-09-28T02:06:48;7.37;;;6.60;;
14740;SDS011;7462;53.530;9.414;2022-09-28T02:09:20;7.53;;;6.73;;
14740;SDS011;7462;53.530;9.414;2022-09-28T02:11:57;7.40;;;6.70;;
14740;SDS011;7462;53.530;9.414;2022-09-28T02:14:30;7.20;;;6.50;;
14740;SDS011;7462;53.530;9.414;2022-09-28T02:17:02;7.63;;;6.83;;
14740;SDS011;7462;53.530;9.414;2022-09-28T02:19:30;10.07;;;6.53;;
14740;SDS011;7462;53.530;9.414;2022-09-28T02:22:00;8.53;;;6.87;;
14740;SDS011;7462;53.530;9.414;2022-09-28T02:24:37;7.60;;;6.73;;
14740;SDS011;7462;53.530;9.414;2022-09-28T02:27:11;8.17;;;6.77;;
14740;SDS011;7462;53.530;9.414;2022-09-28T02:29:42;7.10;;;6.30;;
14740;SDS011;7462;53.530;9.414;2022-09-28T02:32:11;7.50;;;6.77;;
14740;SDS011;7462;53.530;9.414;2022-09-28T02:34:39;10.53;;;6.57;;
14740;SDS011;7462;53.530;9.414;2022-09-28T02:37:07;6.90;;;6.20;;
14740;SDS011;7462;53.530;9.414;2022-09-28T02:39:35;7.90;;;7.10;;
14740;SDS011;7462;53.530;9.414;2022-09-28T02:42:06;7.60;;;6.90;;
14740;SDS011;7462;53.530;9.414;2022-09-28T02:44:51;7.90;;;7.10;;
14740;SDS011;7462;53.530;9.414;2022-09-28T02:47:32;8.30;;;6.93;;
14740;SDS011;7462;53.530;9.414;2022-09-28T02:50:12;8.17;;;7.37;;
14740;SDS011;7462;53.530;9.414;2022-09-28T02:52:52;9.23;;;7.97;;
14740;SDS011;7462;53.530;9.414;2022-09-28T02:55:38;10.83;;;7.97;;
14740;SDS011;7462;53.530;9.414;2022-09-28T02:58:18;9.30;;;8.30;;
14740;SDS011;7462;53.530;9.414;2022-09-28T03:00:56;9.67;;;8.10;;
14740;SDS011;7462;53.530;9.414;2022-09-28T03:03:33;8.97;;;7.97;;
14740;SDS011;7462;53.530;9.414;2022-09-28T03:06:11;9.00;;;8.03;;
14740;SDS011;7462;53.530;9.414;2022-09-28T03:08:47;8.97;;;7.90;;
14740;SDS011;7462;53.530;9.414;2022-09-28T03:11:22;9.33;;;8.37;;
14740;SDS011;7462;53.530;9.414;2022-09-28T03:13:55;9.13;;;8.23;;
14740;SDS011;7462;53.530;9.414;2022-09-28T03:16:33;9.67;;;8.00;;
14740;SDS011;7462;53.530;9.414;2022-09-28T03:19:02;8.40;;;7.60;;
14740;SDS011;7462;53.530;9.414;2022-09-28T03:21:30;8.00;;;7.23;;
14740;SDS011;7462;53.530;9.414;2022-09-28T03:23:58;8.10;;;7.00;;
14740;SDS011;7462;53.530;9.414;2022-09-28T03:26:26;7.40;;;6.60;;
14740;SDS011;7462;53.530;9.414;2022-09-28T03:28:54;7.40;;;6.70;;
14740;SDS011;7462;53.530;9.414;2022-09-28T03:31:23;7.83;;;7.03;;
14740;SDS011;7462;53.530;9.414;2022-09-28T03:33:53;7.97;;;7.13;;
14740;SDS011;7462;53.530;9.414;2022-09-28T03:36:21;7.57;;;6.80;;
14740;SDS011;7462;53.530;9.414;2022-09-28T03:38:50;7.43;;;6.73;;
14740;SDS011;7462;53.530;9.414;2022-09-28T03:41:22;6.97;;;6.27;;
14740;SDS011;7462;53.530;9.414;2022-09-28T03:43:50;7.03;;;6.43;;
14740;SDS011;7462;53.530;9.414;2022-09-28T03:46:20;7.40;;;6.80;;
14740;SDS011;7462;53.530;9.414;2022-09-28T03:48:55;7.50;;;6.70;;
14740;SDS011;7462;53.530;9.414;2022-09-28T03:51:24;7.67;;;6.97;;
14740;SDS011;7462;53.530;9.414;2022-09-28T03:53:52;7.60;;;6.83;;
14740;SDS011;7462;53.530;9.414;2022-09-28T03:56:20;7.87;;;7.00;;
14740;SDS011;7462;53.530;9.414;2022-09-28T03:58:48;7.50;;;6.90;;
14740;SDS011;7462;53.530;9.414;2022-09-28T04:01:16;7.17;;;6.53;;
14740;SDS011;7462;53.530;9.414;2022-09-28T04:03:51;7.37;;;6.67;;
14740;SDS011;7462;53.530;9.414;2022-09-28T04:06:22;7.40;;;6.47;;
14740;SDS011;7462;53.530;9.414;2022-09-28T04:08:50;8.03;;;7.23;;
14740;SDS011;7462;53.530;9.414;2022-09-28T04:11:18;8.63;;;7.37;;
14740;SDS011;7462;53.530;9.414;2022-09-28T04:13:47;8.80;;;8.00;;
14740;SDS011;7462;53.530;9.414;2022-09-28T04:16:15;9.13;;;8.23;;
14740;SDS011;7462;53.530;9.414;2022-09-28T04:18:57;8.33;;;7.53;;
14740;SDS011;7462;53.530;9.414;2022-09-28T04:21:43;9.00;;;8.20;;
14740;SDS011;7462;53.530;9.414;2022-09-28T04:24:12;9.53;;;7.70;;
14740;SDS011;7462;53.530;9.414;2022-09-28T04:26:40;8.23;;;7.43;;
14740;SDS011;7462;53.530;9.414;2022-09-28T04:29:10;8.57;;;7.77;;
14740;SDS011;7462;53.530;9.414;2022-09-28T04:32:01;8.33;;;7.53;;
14740;SDS011;7462;53.530;9.414;2022-09-28T04:34:35;8.40;;;7.60;;
14740;SDS011;7462;53.530;9.414;2022-09-28T04:37:09;8.87;;;7.97;;
14740;SDS011;7462;53.530;9.414;2022-09-28T04:39:38;9.07;;;8.27;;
14740;SDS011;7462;53.530;9.414;2022-09-28T04:42:13;8.40;;;7.60;;
14740;SDS011;7462;53.530;9.414;2022-09-28T04:44:41;8.20;;;7.40;;
14740;SDS011;7462;53.530;9.414;2022-09-28T04:47:10;8.87;;;7.97;;
14740;SDS011;7462;53.530;9.414;2022-09-28T04:49:58;8.33;;;7.53;;
14740;SDS011;7462;53.530;9.414;2022-09-28T04:52:34;8.50;;;7.70;;
14740;SDS011;7462;53.530;9.414;2022-09-28T04:55:02;8.20;;;7.40;;
14740;SDS011;7462;53.530;9.414;2022-09-28T04:57:32;8.27;;;7.47;;
14740;SDS011;7462;53.530;9.414;2022-09-28T05:00:01;9.33;;;8.10;;
14740;SDS011;7462;53.530;9.414;2022-09-28T05:02:32;9.33;;;8.43;;
14740;SDS011;7462;53.530;9.414;2022-09-28T05:05:20;8.57;;;7.77;;
14740;SDS011;7462;53.530;9.414;2022-09-28T05:08:26;8.30;;;7.40;;
14740;SDS011;7462;53.530;9.414;2022-09-28T05:10:55;9.90;;;8.50;;
14740;SDS011;7462;53.530;9.414;2022-09-28T05:13:25;7.83;;;7.13;;
14740;SDS011;7462;53.530;9.414;2022-09-28T05:15:54;10.03;;;8.60;;
14740;SDS011;7462;53.530;9.414;2022-09-28T05:18:31;9.07;;;8.17;;
14740;SDS011;7462;53.530;9.414;2022-09-28T05:21:02;9.10;;;8.20;;
14740;SDS011;7462;53.530;9.414;2022-09-28T05:23:32;9.43;;;7.93;;
14740;SDS011;7462;53.530;9.414;2022-09-28T05:26:00;9.63;;;8.57;;
14740;SDS011;7462;53.530;9.414;2022-09-28T05:28:30;8.87;;;7.57;;
14740;SDS011;7462;53.530;9.414;2022-09-28T05:31:17;10.50;;;9.40;;
14740;SDS011;7462;53.530;9.414;2022-09-28T05:33:55;10.23;;;8.57;;
14740;SDS011;7462;53.530;9.414;2022-09-28T05:36:25;10.97;;;9.00;;
14740;SDS011;7462;53.530;9.414;2022-09-28T05:38:54;10.10;;;8.57;;
14740;SDS011;7462;53.530;9.414;2022-09-28T05:41:23;9.93;;;8.77;;
14740;SDS011;7462;53.530;9.414;2022-09-28T05:43:51;11.87;;;9.53;;
14740;SDS011;7462;53.530;9.414;2022-09-28T05:46:20;10.57;;;9.47;;
14740;SDS011;7462;53.530;9.414;2022-09-28T05:48:49;10.70;;;9.60;;
14740;SDS011;7462;53.530;9.414;2022-09-28T05:51:19;10.30;;;9.30;;
14740;SDS011;7462;53.530;9.414;2022-09-28T05:53:52;10.10;;;8.83;;
14740;SDS011;7462;53.530;9.414;2022-09-28T05:56:21;10.23;;;9.13;;
14740;SDS011;7462;53.530;9.414;2022-09-28T05:58:50;13.03;;;10.57;;
14740;SDS011;7462;53.530;9.414;2022-09-28T06:01:20;22.63;;;15.47;;
14740;SDS011;7462;53.530;9.414;2022-09-28T06:03:49;21.93;;;14.60;;
14740;SDS011;7462;53.530;9.414;2022-09-28T06:06:17;19.87;;;14.13;;
14740;SDS011;7462;53.530;9.414;2022-09-28T06:08:47;23.27;;;16.70;;
14740;SDS011;7462;53.530;9.414;2022-09-28T06:11:31;19.63;;;15.97;;
14740;SDS011;7462;53.530;9.414;2022-09-28T06:14:06;14.07;;;12.63;;
14740;SDS011;7462;53.530;9.414;2022-09-28T06:16:35;13.53;;;11.57;;
14740;SDS011;7462;53.530;9.414;2022-09-28T06:19:10;12.37;;;10.60;;
14740;SDS011;7462;53.530;9.414;2022-09-28T06:22:00;10.60;;;9.40;;
14740;SDS011;7462;53.530;9.414;2022-09-28T06:24:31;11.03;;;9.93;;
14740;SDS011;7462;53.530;9.414;2022-09-28T06:27:01;10.40;;;9.33;;
14740;SDS011;7462;53.530;9.414;2022-09-28T06:29:29;9.80;;;8.80;;
14740;SDS011;7462;53.530;9.414;2022-09-28T06:31:58;10.50;;;9.40;;
14740;SDS011;7462;53.530;9.414;2022-09-28T06:34:26;11.03;;;9.93;;
14740;SDS011;7462;53.530;9.414;2022-09-28T06:36:55;10.63;;;9.53;;
14740;SDS011;7462;53.530;9.414;2022-09-28T06:39:23;10.53;;;9.47;;
14740;SDS011;7462;53.530;9.414;2022-09-28T06:41:51;10.87;;;9.87;;
14740;SDS011;7462;53.530;9.414;2022-09-28T06:44:21;10.67;;;9.57;;
14740;SDS011;7462;53.530;9.414;2022-09-28T06:47:22;10.30;;;9.30;;
14740;SDS011;7462;53.530;9.414;2022-09-28T06:50:13;10.73;;;9.23;;
14740;SDS011;7462;53.530;9.414;2022-09-28T06:53:10;11.13;;;9.93;;
14740;SDS011;7462;53.530;9.414;2022-09-28T06:55:54;10.47;;;9.40;;
14740;SDS011;7462;53.530;9.414;2022-09-28T06:58:22;11.30;;;10.10;;
14740;SDS011;7462;53.530;9.414;2022-09-28T07:00:56;10.40;;;9.40;;
14740;SDS011;7462;53.530;9.414;2022-09-28T07:03:27;10.83;;;9.83;;
14740;SDS011;7462;53.530;9.414;2022-09-28T07:06:19;10.93;;;9.83;;
14740;SDS011;7462;53.530;9.414;2022-09-28T07:09:09;10.63;;;9.63;;
14740;SDS011;7462;53.530;9.414;2022-09-28T07:12:19;11.43;;;10.33;;
14740;SDS011;7462;53.530;9.414;2022-09-28T07:14:53;10.83;;;9.73;;
14740;SDS011;7462;53.530;9.414;2022-09-28T07:17:27;12.40;;;10.87;;
14740;SDS011;7462;53.530;9.414;2022-09-28T07:19:57;11.83;;;10.63;;
14740;SDS011;7462;53.530;9.414;2022-09-28T07:22:36;14.70;;;13.20;;
14740;SDS011;7462;53.530;9.414;2022-09-28T07:25:13;15.20;;;11.57;;
14740;SDS011;7462;53.530;9.414;2022-09-28T07:28:01;11.03;;;9.93;;
14740;SDS011;7462;53.530;9.414;2022-09-28T07:30:51;12.73;;;10.97;;
14740;SDS011;7462;53.530;9.414;2022-09-28T07:33:40;12.97;;;11.67;;
14740;SDS011;7462;53.530;9.414;2022-09-28T07:36:29;11.90;;;10.70;;
14740;SDS011;7462;53.530;9.414;2022-09-28T07:39:01;12.27;;;10.97;;
14740;SDS011;7462;53.530;9.414;2022-09-28T07:41:30;12.07;;;10.77;;
14740;SDS011;7462;53.530;9.414;2022-09-28T07:44:00;12.33;;;11.13;;
14740;SDS011;7462;53.530;9.414;2022-09-28T07:46:34;11.53;;;10.43;;
14740;SDS011;7462;53.530;9.414;2022-09-28T07:49:14;12.50;;;11.20;;
14740;SDS011;7462;53.530;9.414;2022-09-28T07:52:03;13.63;;;11.93;;
14740;SDS011;7462;53.530;9.414;2022-09-28T07:54:37;12.93;;;11.47;;
14740;SDS011;7462;53.530;9.414;2022-09-28T07:57:33;13.37;;;12.00;;
14740;SDS011;7462;53.530;9.414;2022-09-28T08:00:19;13.67;;;12.17;;
14740;SDS011;7462;53.530;9.414;2022-09-28T08:02:48;13.30;;;11.90;;
14740;SDS011;7462;53.530;9.414;2022-09-28T08:05:21;13.37;;;12.03;;
14740;SDS011;7462;53.530;9.414;2022-09-28T08:07:49;13.13;;;11.70;;
14740;SDS011;7462;53.530;9.414;2022-09-28T08:10:19;16.10;;;12.53;;
14740;SDS011;7462;53.530;9.414;2022-09-28T08:13:04;12.57;;;10.90;;
14740;SDS011;7462;53.530;9.414;2022-09-28T08:15:49;12.93;;;11.37;;
14740;SDS011;7462;53.530;9.414;2022-09-28T08:18:29;14.63;;;13.13;;
14740;SDS011;7462;53.530;9.414;2022-09-28T08:21:00;13.20;;;11.90;;
14740;SDS011;7462;53.530;9.414;2022-09-28T08:23:46;13.37;;;11.67;;
14740;SDS011;7462;53.530;9.414;2022-09-28T08:26:14;14.13;;;11.80;;
14740;SDS011;7462;53.530;9.414;2022-09-28T08:28:44;12.70;;;11.40;;
14740;SDS011;7462;53.530;9.414;2022-09-28T08:31:31;13.70;;;11.50;;
14740;SDS011;7462;53.530;9.414;2022-09-28T08:34:16;11.70;;;10.47;;
14740;SDS011;7462;53.530;9.414;2022-09-28T08:37:04;14.27;;;12.67;;
14740;SDS011;7462;53.530;9.414;2022-09-28T08:39:52;12.73;;;11.43;;
14740;SDS011;7462;53.530;9.414;2022-09-28T08:42:41;13.03;;;11.67;;
14740;SDS011;7462;53.530;9.414;2022-09-28T08:45:29;13.33;;;11.93;;
14740;SDS011;7462;53.530;9.414;2022-09-28T08:48:10;12.73;;;11.43;;
14740;SDS011;7462;53.530;9.414;2022-09-28T08:51:32;12.87;;;11.07;;
14740;SDS011;7462;53.530;9.414;2022-09-28T08:54:25;13.83;;;12.43;;
14740;SDS011;7462;53.530;9.414;2022-09-28T08:57:01;14.37;;;11.83;;
14740;SDS011;7462;53.530;9.414;2022-09-28T08:59:38;13.53;;;12.17;;
14740;SDS011;7462;53.530;9.414;2022-09-28T09:02:17;14.70;;;11.63;;
14740;SDS011;7462;53.530;9.414;2022-09-28T09:04:50;12.73;;;11.43;;
14740;SDS011;7462;53.530;9.414;2022-09-28T09:07:28;13.63;;;12.17;;
14740;SDS011;7462;53.530;9.414;2022-09-28T09:13:12;13.67;;;12.27;;
14740;SDS011;7462;53.530;9.414;2022-09-28T09:15:59;13.93;;;12.50;;
14740;SDS011;7462;53.530;9.414;2022-09-28T09:19:01;13.53;;;12.13;;
14740;SDS011;7462;53.530;9.414;2022-09-28T09:22:07;13.73;;;12.27;;
14740;SDS011;7462;53.530;9.414;2022-09-28T09:24:47;14.60;;;12.07;;
14740;SDS011;7462;53.530;9.414;2022-09-28T09:27:25;14.07;;;12.20;;
14740;SDS011;7462;53.530;9.414;2022-09-28T09:30:09;13.03;;;11.53;;
14740;SDS011;7462;53.530;9.414;2022-09-28T09:32:49;14.53;;;11.57;;
14740;SDS011;7462;53.530;9.414;2022-09-28T09:35:47;14.10;;;12.13;;
14740;SDS011;7462;53.530;9.414;2022-09-28T09:38:51;13.50;;;12.03;;
14740;SDS011;7462;53.530;9.414;2022-09-28T09:41:55;13.87;;;12.13;;
14740;SDS011;7462;53.530;9.414;2022-09-28T09:44:59;13.33;;;11.13;;
14740;SDS011;7462;53.530;9.414;2022-09-28T09:48:01;13.53;;;12.00;;
14740;SDS011;7462;53.530;9.414;2022-09-28T09:50:32;16.53;;;11.50;;
14740;SDS011;7462;53.530;9.414;2022-09-28T09:53:05;12.80;;;11.13;;
14740;SDS011;7462;53.530;9.414;2022-09-28T09:55:43;14.35;;;12.95;;
14740;SDS011;7462;53.530;9.414;2022-09-28T09:58:19;12.23;;;10.67;;
14740;SDS011;7462;53.530;9.414;2022-09-28T10:01:00;12.33;;;10.77;;
14740;SDS011;7462;53.530;9.414;2022-09-28T10:03:55;12.17;;;10.33;;
14740;SDS011;7462;53.530;9.414;2022-09-28T10:06:27;12.50;;;10.60;;
14740;SDS011;7462;53.530;9.414;2022-09-28T10:09:00;12.83;;;9.87;;
14740;SDS011;7462;53.530;9.414;2022-09-28T10:11:33;12.50;;;10.43;;
14740;SDS011;7462;53.530;9.414;2022-09-28T10:14:07;12.57;;;11.27;;
14740;SDS011;7462;53.530;9.414;2022-09-28T10:16:44;13.03;;;10.97;;
14740;SDS011;7462;53.530;9.414;2022-09-28T10:19:27;11.67;;;10.07;;
14740;SDS011;7462;53.530;9.414;2022-09-28T10:22:36;11.83;;;9.73;;
14740;SDS011;7462;53.530;9.414;2022-09-28T10:25:09;11.10;;;9.90;;
14740;SDS011;7462;53.530;9.414;2022-09-28T10:27:40;11.07;;;9.87;;
14740;SDS011;7462;53.530;9.414;2022-09-28T10:30:13;10.30;;;9.20;;
14740;SDS011;7462;53.530;9.414;2022-09-28T10:32:45;10.33;;;9.23;;
14740;SDS011;7462;53.530;9.414;2022-09-28T10:35:24;10.67;;;8.90;;
14740;SDS011;7462;53.530;9.414;2022-09-28T10:37:59;10.10;;;8.60;;
14740;SDS011;7462;53.530;9.414;2022-09-28T10:40:51;10.13;;;9.10;;
14740;SDS011;7462;53.530;9.414;2022-09-28T10:43:30;11.83;;;9.07;;
14740;SDS011;7462;53.530;9.414;2022-09-28T10:46:05;11.93;;;9.17;;
14740;SDS011;7462;53.530;9.414;2022-09-28T10:48:44;8.83;;;7.93;;
14740;SDS011;7462;53.530;9.414;2022-09-28T10:51:17;9.33;;;7.93;;
14740;SDS011;7462;53.530;9.414;2022-09-28T10:53:58;9.33;;;7.80;;
14740;SDS011;7462;53.530;9.414;2022-09-28T10:56:41;11.67;;;8.77;;
14740;SDS011;7462;53.530;9.414;2022-09-28T10:59:23;8.83;;;7.93;;
14740;SDS011;7462;53.530;9.414;2022-09-28T11:02:19;8.00;;;7.20;;
14740;SDS011;7462;53.530;9.414;2022-09-28T11:04:55;9.13;;;7.43;;
14740;SDS011;7462;53.530;9.414;2022-09-28T11:07:31;9.30;;;7.80;;
14740;SDS011;7462;53.530;9.414;2022-09-28T11:10:00;8.37;;;7.43;;
14740;SDS011;7462;53.530;9.414;2022-09-28T11:12:32;8.07;;;7.27;;
14740;SDS011;7462;53.530;9.414;2022-09-28T11:15:05;8.63;;;7.00;;
14740;SDS011;7462;53.530;9.414;2022-09-28T11:17:35;8.50;;;7.40;;
14740;SDS011;7462;53.530;9.414;2022-09-28T11:20:20;8.30;;;6.70;;
14740;SDS011;7462;53.530;9.414;2022-09-28T11:23:00;7.87;;;7.07;;
14740;SDS011;7462;53.530;9.414;2022-09-28T11:25:54;7.43;;;6.63;;
14740;SDS011;7462;53.530;9.414;2022-09-28T11:28:29;8.53;;;7.40;;
14740;SDS011;7462;53.530;9.414;2022-09-28T11:31:05;8.00;;;6.47;;
14740;SDS011;7462;53.530;9.414;2022-09-28T11:33:45;7.60;;;6.80;;
14740;SDS011;7462;53.530;9.414;2022-09-28T11:36:41;7.93;;;5.80;;
14740;SDS011;7462;53.530;9.414;2022-09-28T11:39:30;6.80;;;6.10;;
14740;SDS011;7462;53.530;9.414;2022-09-28T11:42:07;6.47;;;5.87;;
14740;SDS011;7462;53.530;9.414;2022-09-28T11:44:45;7.20;;;5.60;;
14740;SDS011;7462;53.530;9.414;2022-09-28T11:47:21;6.83;;;5.57;;
14740;SDS011;7462;53.530;9.414;2022-09-28T11:50:05;5.67;;;5.10;;
14740;SDS011;7462;53.530;9.414;2022-09-28T11:52:47;6.57;;;5.30;;
14740;SDS011;7462;53.530;9.414;2022-09-28T11:55:23;5.40;;;4.90;;
14740;SDS011;7462;53.530;9.414;2022-09-28T11:57:59;6.10;;;5.27;;
14740;SDS011;7462;53.530;9.414;2022-09-28T12:00:32;5.90;;;4.07;;
14740;SDS011;7462;53.530;9.414;2022-09-28T12:03:07;4.90;;;4.30;;
14740;SDS011;7462;53.530;9.414;2022-09-28T12:05:42;5.20;;;4.30;;
14740;SDS011;7462;53.530;9.414;2022-09-28T12:08:15;5.20;;;4.60;;
14740;SDS011;7462;53.530;9.414;2022-09-28T12:11:05;4.60;;;4.03;;
14740;SDS011;7462;53.530;9.414;2022-09-28T12:13:56;6.23;;;4.87;;
14740;SDS011;7462;53.530;9.414;2022-09-28T12:16:28;4.93;;;3.97;;
14740;SDS011;7462;53.530;9.414;2022-09-28T12:19:21;5.57;;;3.80;;
14740;SDS011;7462;53.530;9.414;2022-09-28T12:21:56;4.93;;;4.37;;
14740;SDS011;7462;53.530;9.414;2022-09-28T12:24:30;4.97;;;3.80;;
14740;SDS011;7462;53.530;9.414;2022-09-28T12:27:03;4.80;;;3.90;;
14740;SDS011;7462;53.530;9.414;2022-09-28T12:29:38;4.97;;;3.93;;
14740;SDS011;7462;53.530;9.414;2022-09-28T12:32:11;4.27;;;3.87;;
14740;SDS011;7462;53.530;9.414;2022-09-28T12:34:45;3.90;;;3.50;;
14740;SDS011;7462;53.530;9.414;2022-09-28T12:37:16;5.33;;;3.50;;
14740;SDS011;7462;53.530;9.414;2022-09-28T12:40:00;4.70;;;3.20;;
14740;SDS011;7462;53.530;9.414;2022-09-28T12:43:01;5.60;;;3.30;;
14740;SDS011;7462;53.530;9.414;2022-09-28T12:45:54;4.13;;;3.37;;
14740;SDS011;7462;53.530;9.414;2022-09-28T12:48:44;4.20;;;2.90;;
14740;SDS011;7462;53.530;9.414;2022-09-28T12:51:51;3.77;;;2.43;;
14740;SDS011;7462;53.530;9.414;2022-09-28T12:54:25;3.40;;;2.50;;
14740;SDS011;7462;53.530;9.414;2022-09-28T12:57:22;3.00;;;2.33;;
14740;SDS011;7462;53.530;9.414;2022-09-28T13:00:09;2.73;;;2.40;;
14740;SDS011;7462;53.530;9.414;2022-09-28T13:02:44;3.87;;;2.23;;
14740;SDS011;7462;53.530;9.414;2022-09-28T13:08:39;3.07;;;2.23;;
14740;SDS011;7462;53.530;9.414;2022-09-28T13:11:14;4.47;;;2.00;;
14740;SDS011;7462;53.530;9.414;2022-09-28T13:13:50;3.17;;;2.37;;
14740;SDS011;7462;53.530;9.414;2022-09-28T13:16:30;3.00;;;2.20;;
14740;SDS011;7462;53.530;9.414;2022-09-28T13:19:10;3.17;;;1.80;;
14740;SDS011;7462;53.530;9.414;2022-09-28T13:21:44;2.93;;;2.00;;
14740;SDS011;7462;53.530;9.414;2022-09-28T13:24:17;3.67;;;2.67;;
14740;SDS011;7462;53.530;9.414;2022-09-28T13:27:01;4.23;;;2.40;;
14740;SDS011;7462;53.530;9.414;2022-09-28T13:29:32;3.57;;;2.30;;
14740;SDS011;7462;53.530;9.414;2022-09-28T13:32:03;3.80;;;2.23;;
14740;SDS011;7462;53.530;9.414;2022-09-28T13:34:34;4.03;;;2.00;;
14740;SDS011;7462;53.530;9.414;2022-09-28T13:37:08;3.20;;;2.03;;
14740;SDS011;7462;53.530;9.414;2022-09-28T13:39:47;2.43;;;1.63;;
14740;SDS011;7462;53.530;9.414;2022-09-28T13:42:27;1.77;;;1.20;;
14740;SDS011;7462;53.530;9.414;2022-09-28T13:45:20;2.97;;;1.50;;
14740;SDS011;7462;53.530;9.414;2022-09-28T13:47:59;1.50;;;1.40;;
14740;SDS011;7462;53.530;9.414;2022-09-28T13:50:46;2.43;;;1.53;;
14740;SDS011;7462;53.530;9.414;2022-09-28T13:53:34;3.63;;;2.00;;
14740;SDS011;7462;53.530;9.414;2022-09-28T13:56:17;3.03;;;1.60;;
14740;SDS011;7462;53.530;9.414;2022-09-28T13:58:52;2.80;;;1.70;;
14740;SDS011;7462;53.530;9.414;2022-09-28T14:01:25;2.53;;;1.50;;
14740;SDS011;7462;53.530;9.414;2022-09-28T14:04:11;3.20;;;1.57;;
14740;SDS011;7462;53.530;9.414;2022-09-28T14:06:43;2.20;;;1.53;;
14740;SDS011;7462;53.530;9.414;2022-09-28T14:09:24;2.43;;;1.40;;
14740;SDS011;7462;53.530;9.414;2022-09-28T14:12:26;2.30;;;1.40;;
14740;SDS011;7462;53.530;9.414;2022-09-28T14:18:15;1.70;;;1.30;;
14740;SDS011;7462;53.530;9.414;2022-09-28T14:20:56;1.90;;;1.40;;
14740;SDS011;7462;53.530;9.414;2022-09-28T14:26:34;3.33;;;1.73;;
14740;SDS011;7462;53.530;9.414;2022-09-28T14:29:25;2.63;;;1.50;;
14740;SDS011;7462;53.530;9.414;2022-09-28T14:31:55;2.20;;;1.53;;
14740;SDS011;7462;53.530;9.414;2022-09-28T14:34:25;3.30;;;1.93;;
14740;SDS011;7462;53.530;9.414;2022-09-28T14:37:00;2.33;;;1.93;;
14740;SDS011;7462;53.530;9.414;2022-09-28T14:39:47;2.13;;;1.80;;
14740;SDS011;7462;53.530;9.414;2022-09-28T14:42:33;2.87;;;1.77;;
14740;SDS011;7462;53.530;9.414;2022-09-28T14:45:17;2.30;;;1.80;;
14740;SDS011;7462;53.530;9.414;2022-09-28T14:48:03;4.50;;;2.20;;
14740;SDS011;7462;53.530;9.414;2022-09-28T14:50:40;3.13;;;2.30;;
14740;SDS011;7462;53.530;9.414;2022-09-28T14:53:10;4.10;;;2.17;;
14740;SDS011;7462;53.530;9.414;2022-09-28T14:55:41;3.37;;;2.33;;
14740;SDS011;7462;53.530;9.414;2022-09-28T14:58:20;3.60;;;2.53;;
14740;SDS011;7462;53.530;9.414;2022-09-28T15:00:52;2.87;;;2.50;;
14740;SDS011;7462;53.530;9.414;2022-09-28T15:03:27;4.03;;;2.90;;
14740;SDS011;7462;53.530;9.414;2022-09-28T15:05:58;3.53;;;2.83;;
14740;SDS011;7462;53.530;9.414;2022-09-28T15:08:37;4.50;;;3.17;;
14740;SDS011;7462;53.530;9.414;2022-09-28T15:11:18;4.87;;;3.60;;
14740;SDS011;7462;53.530;9.414;2022-09-28T15:13:48;4.25;;;3.00;;
14740;SDS011;7462;53.530;9.414;2022-09-28T15:16:21;4.10;;;3.40;;
14740;SDS011;7462;53.530;9.414;2022-09-28T15:18:57;5.43;;;3.70;;
14740;SDS011;7462;53.530;9.414;2022-09-28T15:21:43;5.23;;;3.50;;
14740;SDS011;7462;53.530;9.414;2022-09-28T15:24:28;5.00;;;3.90;;
14740;SDS011;7462;53.530;9.414;2022-09-28T15:26:58;5.73;;;3.47;;
14740;SDS011;7462;53.530;9.414;2022-09-28T15:29:28;6.23;;;4.40;;
14740;SDS011;7462;53.530;9.414;2022-09-28T15:31:58;6.83;;;4.57;;
14740;SDS011;7462;53.530;9.414;2022-09-28T15:34:30;6.07;;;4.07;;
14740;SDS011;7462;53.530;9.414;2022-09-28T15:37:17;4.97;;;3.87;;
14740;SDS011;7462;53.530;9.414;2022-09-28T15:39:50;5.50;;;4.20;;
14740;SDS011;7462;53.530;9.414;2022-09-28T15:42:20;4.63;;;3.87;;
14740;SDS011;7462;53.530;9.414;2022-09-28T15:47:50;4.90;;;4.07;;
14740;SDS011;7462;53.530;9.414;2022-09-28T15:50:24;7.30;;;5.40;;
14740;SDS011;7462;53.530;9.414;2022-09-28T15:52:55;5.70;;;4.90;;
14740;SDS011;7462;53.530;9.414;2022-09-28T15:55:27;5.63;;;4.50;;
14740;SDS011;7462;53.530;9.414;2022-09-28T15:58:05;8.13;;;5.13;;
14740;SDS011;7462;53.530;9.414;2022-09-28T16:00:42;6.80;;;5.23;;
14740;SDS011;7462;53.530;9.414;2022-09-28T16:03:21;6.27;;;5.20;;
14740;SDS011;7462;53.530;9.414;2022-09-28T16:06:04;6.07;;;5.20;;
14740;SDS011;7462;53.530;9.414;2022-09-28T16:08:37;7.60;;;4.97;;
14740;SDS011;7462;53.530;9.414;2022-09-28T16:11:10;7.10;;;5.43;;